Terminal Aerodrome Forecast
Issued by NWS

Home | Current Version | Previous Version | Text Only | Print | Product List | Glossary On
Versions: 1 2 3 4 5 6 7 8 9 10 11 12 13 14 15 16 17 18 19 20 21 22 23 24 25 26 27
389
FTUS43 KGRR 212340
TAFLAN
TAF
KLAN 212340Z 2200/2224 15009KT P6SM SKC
     FM220300 21003KT 3SM BR OVC006
     FM220530 20004KT 1/2SM FG OVC015
     FM220700 VRB03KT 1/4SM FG VV001
     FM221600 02004KT 2SM BR OVC015=

USA.gov is the U.S. government's official web portal to all federal, state and local government web resources and services.